createdAt,value
2023-01-17T00:00:31.432Z,-20210.41
2023-01-17T00:01:34.305Z,-20209.28
2023-01-17T00:02:37.245Z,-20210.94
2023-01-17T00:03:58.669Z,-20210.03
2023-01-17T00:05:19.753Z,-20210.03
2023-01-17T00:06:42.677Z,-20212.63
2023-01-17T00:08:03.916Z,-20211.88
2023-01-17T00:09:25.034Z,-20208.16
2023-01-17T00:10:28.291Z,-20213.91
2023-01-17T00:11:30.805Z,-20211.88
2023-01-17T00:12:34.404Z,-20211.13
2023-01-17T00:13:37.166Z,-20212.22
2023-01-17T00:14:39.816Z,-20211.13
2023-01-17T00:15:42.359Z,-20212.22
2023-01-17T00:16:44.838Z,-20211.13
2023-01-17T00:17:48.081Z,-20211.50
2023-01-17T00:19:10.522Z,-20209.66
2023-01-17T00:20:32.721Z,-20211.50
2023-01-17T00:21:53.963Z,-20210.03
2023-01-17T00:23:15.323Z,-20208.19
2023-01-17T00:24:36.800Z,-20204.50
2023-01-17T00:25:59.483Z,-20199.69
2023-01-17T00:27:14.135Z,-20195.25
2023-01-17T00:28:16.767Z,-20194.16
2023-01-17T00:29:20.009Z,-20191.19
2023-01-17T00:30:23.013Z,-20186.41
2023-01-17T00:31:25.504Z,-20184.56
2023-01-17T00:32:27.942Z,-20183.63
2023-01-17T00:33:30.578Z,-20184.19
2023-01-17T00:34:32.987Z,-20183.44
2023-01-17T00:35:35.511Z,-20182.16
2023-01-17T00:36:38.020Z,-20180.50
2023-01-17T00:37:40.660Z,-20179.56
2023-01-17T00:38:43.308Z,-20179.75
2023-01-17T00:39:45.825Z,-20179.56
2023-01-17T00:40:49.439Z,-20179.75
2023-01-17T00:41:52.195Z,-20179.03
2023-01-17T00:43:13.444Z,-20180.50
2023-01-17T00:44:34.555Z,-20177.72
2023-01-17T00:45:55.314Z,-20179.75
2023-01-17T00:47:16.679Z,-20176.44
2023-01-17T00:48:37.800Z,-20177.00
2023-01-17T00:49:59.163Z,-20177.91
2023-01-17T00:51:22.230Z,-20179.56
2023-01-17T00:52:43.688Z,-20177.34
2023-01-17T00:54:05.302Z,-20176.41
2023-01-17T00:55:27.015Z,-20174.94
2023-01-17T00:56:48.500Z,-20174.56
2023-01-17T00:58:09.738Z,-19858.00
2023-01-17T00:59:31.337Z,-19857.63
2023-01-17T01:00:53.006Z,-19858.53
2023-01-17T01:02:14.548Z,-19858.00
2023-01-17T01:03:36.519Z,-19858.91
2023-01-17T01:04:58.105Z,-19856.91
2023-01-17T01:06:23.674Z,-19856.19
2023-01-17T01:07:45.271Z,-19537.06
2023-01-17T01:09:06.873Z,-19536.88
2023-01-17T01:10:28.955Z,-19539.19
2023-01-17T01:11:50.439Z,-19537.06
2023-01-17T01:13:11.801Z,-19538.50
2023-01-17T01:14:33.411Z,-19217.94
2023-01-17T01:15:55.142Z,-19538.13
2023-01-17T01:17:16.742Z,-19220.59
2023-01-17T01:18:38.576Z,-19217.94
2023-01-17T01:20:00.207Z,-19218.31
2023-01-17T01:21:22.980Z,-19219.38
2023-01-17T01:22:44.600Z,-18901.66
2023-01-17T01:24:06.178Z,-18902.34
2023-01-17T01:25:28.020Z,-19222.53
2023-01-17T01:26:49.746Z,-18904.06
2023-01-17T01:28:10.878Z,-18901.66
2023-01-17T01:29:32.232Z,-18901.47
2023-01-17T01:30:53.113Z,-18583.91
2023-01-17T01:32:13.990Z,-18905.66
2023-01-17T01:33:20.532Z,-18585.28
2023-01-17T01:34:23.360Z,-18267.47
2023-01-17T01:35:26.356Z,-18267.31
2023-01-17T01:36:28.997Z,-18268.16
2023-01-17T01:37:32.478Z,-18267.31
2023-01-17T01:38:35.174Z,-17950.31
2023-01-17T01:39:37.815Z,-17950.00
2023-01-17T01:40:44.967Z,-18268.50
2023-01-17T01:41:47.532Z,-17950.66
2023-01-17T01:42:54.133Z,-17632.78
2023-01-17T01:43:57.140Z,-17632.97
2023-01-17T01:44:59.663Z,-17632.63
2023-01-17T01:46:02.365Z,-17633.44
2023-01-17T01:47:04.936Z,-17315.56
2023-01-17T01:48:21.263Z,-17954.16
2023-01-17T01:49:28.422Z,-17634.75
2023-01-17T01:50:33.981Z,-17635.09
2023-01-17T01:51:44.063Z,-17953.66
2023-01-17T01:52:50.905Z,-17636.72
2023-01-17T01:54:00.990Z,-19556.25
2023-01-17T01:55:18.111Z,-19551.22
2023-01-17T01:56:23.664Z,-19870.91
2023-01-17T01:57:32.187Z,-18912.44
2023-01-17T01:58:37.947Z,-18272.03
2023-01-17T01:59:44.911Z,-18273.56
2023-01-17T02:00:47.521Z,-17955.31
2023-01-17T02:01:53.302Z,-17956.31
2023-01-17T02:03:00.150Z,-17638.03
2023-01-17T02:04:03.547Z,-17320.38
2023-01-17T02:05:06.635Z,-17001.44
2023-01-17T02:06:16.237Z,-17639.66
2023-01-17T02:07:30.153Z,-17321.34
2023-01-17T02:08:33.643Z,-16682.78
2023-01-17T02:09:37.112Z,-16683.09
2023-01-17T02:10:42.637Z,-17003.97
2023-01-17T02:11:47.082Z,-16366.59
2023-01-17T02:12:49.832Z,-15730.41
2023-01-17T02:13:52.359Z,-15730.41
2023-01-17T02:14:55.623Z,-15411.38
2023-01-17T02:16:22.463Z,-16049.41
2023-01-17T02:17:31.721Z,-16367.38
2023-01-17T02:18:53.441Z,-16684.81
2023-01-17T02:20:10.839Z,-16047.31
2023-01-17T02:21:23.808Z,-17640.00
2023-01-17T02:22:38.450Z,-17638.03
2023-01-17T02:24:18.180Z,-17639.50
2023-01-17T02:25:47.985Z,-17640.31
2023-01-17T02:26:52.846Z,-17321.69
2023-01-17T02:28:32.688Z,-17641.31
2023-01-17T02:29:50.089Z,-16684.34
2023-01-17T02:31:01.007Z,-17321.34
2023-01-17T02:32:31.978Z,-17641.31
2023-01-17T02:33:43.614Z,-17638.69
2023-01-17T02:35:01.743Z,-17639.66
2023-01-17T02:36:22.635Z,-17320.06
2023-01-17T02:37:57.682Z,-17004.59
2023-01-17T02:39:20.462Z,-16684.34
2023-01-17T02:40:33.064Z,-16683.41
2023-01-17T02:41:44.958Z,-16046.72
2023-01-17T02:42:55.161Z,-16362.16
2023-01-17T02:43:57.690Z,-15725.06
2023-01-17T02:45:02.231Z,-15724.34
2023-01-17T02:46:05.013Z,-16041.75
2023-01-17T02:47:36.913Z,-16996.50
2023-01-17T02:48:40.282Z,-16359.09
2023-01-17T02:49:43.044Z,-16357.88
2023-01-17T02:51:10.282Z,-17313.28
2023-01-17T02:52:34.401Z,-17312.50
2023-01-17T02:54:18.803Z,-17310.72
2023-01-17T02:55:35.968Z,-16993.50
2023-01-17T02:56:49.289Z,-17313.47
2023-01-17T02:58:01.410Z,-17632.13
2023-01-17T02:59:25.903Z,-17313.28
2023-01-17T03:00:53.318Z,-16993.97
2023-01-17T03:02:25.363Z,-16676.72
2023-01-17T03:03:35.861Z,-16677.19
2023-01-17T03:04:48.709Z,-16039.47
2023-01-17T03:06:12.104Z,-16040.09
2023-01-17T03:07:24.229Z,-15720.47
2023-01-17T03:08:29.159Z,-15082.94
2023-01-17T03:09:32.991Z,-14127.28
2023-01-17T03:10:37.320Z,-14445.28
2023-01-17T03:11:40.435Z,-13809.25
2023-01-17T03:12:44.041Z,-14445.84
2023-01-17T03:13:47.156Z,-14444.19
2023-01-17T03:14:50.399Z,-14443.91
2023-01-17T03:15:53.766Z,-13807.13
2023-01-17T03:16:56.935Z,-14442.53
2023-01-17T03:18:04.924Z,-14125.66
2023-01-17T03:19:10.238Z,-14124.59
2023-01-17T03:20:13.448Z,-14442.81
2023-01-17T03:21:16.694Z,-14441.84
2023-01-17T03:22:19.809Z,-14759.06
2023-01-17T03:23:22.950Z,-15395.38
2023-01-17T03:24:26.174Z,-15713.06
2023-01-17T03:25:29.415Z,-16348.97
2023-01-17T03:26:33.259Z,-16664.88
2023-01-17T03:27:36.378Z,-16664.09
2023-01-17T03:28:39.747Z,-16665.34
2023-01-17T03:29:42.870Z,-16665.03
2023-01-17T03:30:45.907Z,-16666.28
2023-01-17T03:31:49.109Z,-16346.97
2023-01-17T03:32:51.875Z,-16348.38
2023-01-17T03:33:54.631Z,-16031.66
2023-01-17T03:34:57.390Z,-15713.81
2023-01-17T03:36:00.037Z,-15713.81
2023-01-17T03:37:02.795Z,-15395.69
2023-01-17T03:38:05.492Z,-15396.84
2023-01-17T03:39:08.198Z,-15397.00
2023-01-17T03:40:11.327Z,-15397.13
2023-01-17T03:41:14.207Z,-15397.72
2023-01-17T03:42:16.896Z,-15080.38
2023-01-17T03:43:19.725Z,-15080.94
2023-01-17T03:44:22.608Z,-15399.16
2023-01-17T03:45:25.296Z,-15399.16
2023-01-17T03:46:28.972Z,-15717.66
2023-01-17T03:47:31.538Z,-15717.97
2023-01-17T03:48:34.859Z,-16037.66
2023-01-17T03:49:37.975Z,-16035.56
2023-01-17T03:50:40.538Z,-16034.34
2023-01-17T03:51:43.183Z,-16988.13
2023-01-17T03:52:45.660Z,-16988.44
2023-01-17T03:53:48.349Z,-17307.81
2023-01-17T03:54:50.866Z,-16991.28
2023-01-17T03:55:53.479Z,-17623.94
2023-01-17T03:56:56.024Z,-17941.00
2023-01-17T03:57:58.568Z,-18257.34
2023-01-17T03:59:01.184Z,-18574.63
2023-01-17T04:00:04.666Z,-18891.19
2023-01-17T04:01:10.063Z,-19209.81
2023-01-17T04:02:12.761Z,-19527.72
2023-01-17T04:03:15.438Z,-19844.00
2023-01-17T04:04:18.083Z,-19844.16
2023-01-17T04:05:20.601Z,-20161.47
2023-01-17T04:06:23.158Z,-20160.38
2023-01-17T04:07:25.791Z,-20160.19
2023-01-17T04:08:28.550Z,-20161.66
2023-01-17T04:09:34.196Z,-20162.03
2023-01-17T04:10:36.711Z,-20160.56
2023-01-17T04:11:39.232Z,-20161.66
2023-01-17T04:12:41.757Z,-20161.47
2023-01-17T04:13:44.284Z,-20160.56
2023-01-17T04:14:48.240Z,-20160.94
2023-01-17T04:15:51.597Z,-20162.41
2023-01-17T04:16:54.522Z,-20161.31
2023-01-17T04:17:57.238Z,-20161.66
2023-01-17T04:18:59.763Z,-20162.59
2023-01-17T04:20:02.283Z,-20161.31
2023-01-17T04:21:04.919Z,-20162.41
2023-01-17T04:22:07.684Z,-20162.03
2023-01-17T04:23:10.450Z,-20162.59
2023-01-17T04:24:12.971Z,-20161.66
2023-01-17T04:25:15.601Z,-20163.53
2023-01-17T04:26:18.122Z,-20163.69
2023-01-17T04:27:20.644Z,-20161.31
2023-01-17T04:28:23.164Z,-20162.41
2023-01-17T04:29:25.803Z,-20162.41
2023-01-17T04:30:28.819Z,-20164.63
2023-01-17T04:31:32.781Z,-20163.53
2023-01-17T04:32:35.290Z,-20164.63
2023-01-17T04:33:37.821Z,-20166.09
2023-01-17T04:34:40.329Z,-20163.88
2023-01-17T04:35:42.866Z,-20165.53
2023-01-17T04:36:45.618Z,-20165.38
2023-01-17T04:37:48.134Z,-20163.88
2023-01-17T04:38:50.664Z,-20163.88
2023-01-17T04:39:53.183Z,-20163.69
2023-01-17T04:40:55.702Z,-20163.53
2023-01-17T04:41:58.229Z,-20163.53
2023-01-17T04:43:00.878Z,-20162.78
2023-01-17T04:44:04.465Z,-20163.88
2023-01-17T04:45:07.824Z,-20164.06
2023-01-17T04:46:11.039Z,-20164.63
2023-01-17T04:47:13.711Z,-20165.72
2023-01-17T04:48:16.351Z,-20164.63
2023-01-17T04:49:18.879Z,-20165.00
2023-01-17T04:50:21.399Z,-20164.25
2023-01-17T04:51:24.054Z,-20163.16
2023-01-17T04:52:26.687Z,-20164.81
2023-01-17T04:53:29.440Z,-20163.53
2023-01-17T04:54:32.203Z,-20163.34
2023-01-17T04:55:34.972Z,-20160.53
2023-01-17T04:56:37.967Z,-20160.72
2023-01-17T04:57:40.725Z,-19527.56
2023-01-17T04:58:43.621Z,-18573.94
2023-01-17T04:59:47.586Z,-18573.94
2023-01-17T05:00:51.961Z,-18254.31
2023-01-17T05:01:55.061Z,-17620.34
2023-01-17T05:02:58.184Z,-16984.00
2023-01-17T05:04:01.270Z,-16667.22
2023-01-17T05:05:04.379Z,-16032.25
2023-01-17T05:06:07.499Z,-16031.03
2023-01-17T05:07:10.891Z,-16349.28
2023-01-17T05:08:14.345Z,-16350.06
2023-01-17T05:09:17.467Z,-16348.97
2023-01-17T05:10:20.591Z,-16666.56
2023-01-17T05:11:23.706Z,-16985.25
2023-01-17T05:12:27.793Z,-17303.78
2023-01-17T05:13:30.912Z,-16985.91
2023-01-17T05:14:34.755Z,-16984.94
2023-01-17T05:15:37.878Z,-17301.69
2023-01-17T05:16:41.020Z,-17302.00
2023-01-17T05:17:44.249Z,-16033.75
2023-01-17T05:18:47.481Z,-15714.72
2023-01-17T05:19:52.162Z,-15399.47
2023-01-17T05:20:55.289Z,-15080.09
2023-01-17T05:22:04.393Z,-15395.97
2023-01-17T05:23:08.127Z,-15712.47
2023-01-17T05:24:11.369Z,-16663.47
2023-01-17T05:25:14.621Z,-17298.97
2023-01-17T05:26:18.096Z,-17930.19
2023-01-17T05:27:21.221Z,-18244.00
2023-01-17T05:28:24.578Z,-18558.50
2023-01-17T05:29:27.825Z,-18552.69
2023-01-17T05:30:33.463Z,-19182.59
2023-01-17T05:31:37.206Z,-19811.06
2023-01-17T05:32:40.429Z,-19809.97
2023-01-17T05:33:43.672Z,-20122.34
2023-01-17T05:34:46.674Z,-20122.72
2023-01-17T05:35:49.547Z,-20121.25
2023-01-17T05:36:52.683Z,-20118.13
2023-01-17T05:37:55.800Z,-20115.91
2023-01-17T05:38:58.312Z,-20114.06
2023-01-17T05:40:01.196Z,-20115.16
2023-01-17T05:41:05.157Z,-20115.16
2023-01-17T05:42:07.679Z,-19795.06
2023-01-17T05:43:10.442Z,-18845.22
2023-01-17T05:44:13.321Z,-17893.44
2023-01-17T05:45:17.404Z,-17259.81
2023-01-17T05:46:20.050Z,-15672.94
2023-01-17T05:47:22.568Z,-14722.59
2023-01-17T05:48:25.213Z,-13453.00
2023-01-17T05:49:27.665Z,-12501.44
2023-01-17T05:50:36.176Z,-12503.41
2023-01-17T05:51:39.744Z,-10915.44
2023-01-17T05:52:42.805Z,-10281.28
2023-01-17T05:53:45.312Z,-9328.16
2023-01-17T05:54:47.947Z,-9010.69
2023-01-17T05:55:50.663Z,-8374.88
2023-01-17T05:56:53.306Z,-8375.50
2023-01-17T05:57:56.823Z,-8694.19
2023-01-17T05:58:59.429Z,-8058.44
2023-01-17T06:00:02.110Z,-7740.47
2023-01-17T06:01:07.386Z,-8058.84
2023-01-17T06:02:09.905Z,-7740.47
2023-01-17T06:03:13.031Z,-8059.38
2023-01-17T06:04:15.715Z,-8059.38
2023-01-17T06:05:18.189Z,-8059.19
2023-01-17T06:06:21.078Z,-8695.38
2023-01-17T06:07:23.589Z,-8695.19
2023-01-17T06:08:26.112Z,-9331.69
2023-01-17T06:09:28.631Z,-9332.47
2023-01-17T06:10:32.269Z,-9968.69
2023-01-17T06:11:34.885Z,-10287.09
2023-01-17T06:12:37.751Z,-10922.41
2023-01-17T06:13:40.375Z,-11241.00
2023-01-17T06:14:42.913Z,-13785.81
2023-01-17T06:15:45.493Z,-15057.53
2023-01-17T06:16:48.079Z,-13466.63
2023-01-17T06:17:50.601Z,-14102.56
2023-01-17T06:18:53.252Z,-14419.97
2023-01-17T06:19:55.759Z,-14737.47
2023-01-17T06:20:58.540Z,-15053.38
2023-01-17T06:22:01.041Z,-15054.66
2023-01-17T06:23:05.851Z,-15371.53
2023-01-17T06:24:08.479Z,-15052.25
2023-01-17T06:25:11.023Z,-15052.81
2023-01-17T06:26:13.544Z,-15053.22
2023-01-17T06:27:16.169Z,-15371.38
2023-01-17T06:28:21.087Z,-15689.69
2023-01-17T06:29:23.721Z,-15053.53
2023-01-17T06:30:26.265Z,-15051.66
2023-01-17T06:31:28.853Z,-15052.09
2023-01-17T06:32:31.296Z,-15051.53
2023-01-17T06:33:34.070Z,-14734.66
2023-01-17T06:34:38.370Z,-15690.13
2023-01-17T06:35:47.853Z,-16007.97
2023-01-17T06:36:50.382Z,-15371.81
2023-01-17T06:37:55.453Z,-15371.97
2023-01-17T06:38:58.055Z,-15053.81
2023-01-17T06:40:00.597Z,-15371.53
2023-01-17T06:41:06.097Z,-16007.06
2023-01-17T06:42:08.746Z,-15371.25
2023-01-17T06:43:11.411Z,-15371.53
2023-01-17T06:44:14.048Z,-15370.22
2023-01-17T06:45:17.162Z,-15369.50
2023-01-17T06:46:20.083Z,-15689.81
2023-01-17T06:47:22.674Z,-16006.47
2023-01-17T06:48:25.313Z,-16006.78
2023-01-17T06:49:28.200Z,-16324.28
2023-01-17T06:50:31.793Z,-16959.91
2023-01-17T06:51:34.435Z,-16958.00
2023-01-17T06:52:37.140Z,-16957.84
2023-01-17T06:53:40.451Z,-17276.41
2023-01-17T06:54:43.083Z,-17275.91
2023-01-17T06:55:45.723Z,-17276.56
2023-01-17T06:56:48.363Z,-17596.44
2023-01-17T06:57:51.241Z,-17915.41
2023-01-17T06:58:54.014Z,-17916.06
2023-01-17T06:59:56.766Z,-18230.31
2023-01-17T07:00:59.747Z,-18231.16
2023-01-17T07:02:02.659Z,-18549.94
2023-01-17T07:03:05.534Z,-18550.63
2023-01-17T07:04:08.625Z,-18867.34
2023-01-17T07:05:11.675Z,-18865.44
2023-01-17T07:06:14.669Z,-19184.19
2023-01-17T07:07:18.019Z,-19181.91
2023-01-17T07:08:21.150Z,-19497.78
2023-01-17T07:09:24.262Z,-19496.53
2023-01-17T07:10:27.386Z,-19811.25
2023-01-17T07:11:30.872Z,-19809.25
2023-01-17T07:12:33.987Z,-20125.66
2023-01-17T07:13:40.712Z,-20125.50
2023-01-17T07:14:43.835Z,-20122.34
2023-01-17T07:15:47.027Z,-20121.44
2023-01-17T07:16:50.554Z,-20121.44
2023-01-17T07:17:53.675Z,-20119.22
2023-01-17T07:18:58.480Z,-20119.22
2023-01-17T07:20:01.858Z,-20117.75
2023-01-17T07:21:04.961Z,-20116.66
2023-01-17T07:22:11.202Z,-20120.34
2023-01-17T07:23:14.569Z,-20116.66
2023-01-17T07:24:17.806Z,-20115.91
2023-01-17T07:25:21.058Z,-20115.16
2023-01-17T07:26:24.173Z,-20112.94
2023-01-17T07:27:30.783Z,-20117.00
2023-01-17T07:28:34.013Z,-20111.47
2023-01-17T07:29:39.216Z,-20114.06
2023-01-17T07:30:42.682Z,-20108.91
2023-01-17T07:31:46.259Z,-20107.06
2023-01-17T07:32:53.955Z,-20108.72
2023-01-17T07:33:57.431Z,-20104.84
2023-01-17T07:35:00.905Z,-20104.84
2023-01-17T07:36:09.377Z,-20105.03
2023-01-17T07:37:15.210Z,-20104.47
2023-01-17T07:38:20.229Z,-20103.72
2023-01-17T07:39:23.351Z,-20101.16
2023-01-17T07:40:27.319Z,-20104.47
2023-01-17T07:41:35.115Z,-20107.97
2023-01-17T07:42:40.765Z,-20107.78
2023-01-17T07:43:43.999Z,-20106.13
2023-01-17T07:44:46.642Z,-20105.03
2023-01-17T07:45:53.488Z,-20102.63
2023-01-17T07:46:56.178Z,-20100.03
2023-01-17T07:47:58.885Z,-20099.66
2023-01-17T07:49:01.774Z,-20098.94
2023-01-17T07:50:05.297Z,-20098.56
2023-01-17T07:51:09.633Z,-20097.28
2023-01-17T07:52:12.333Z,-20093.03
2023-01-17T07:53:15.260Z,-20091.91
2023-01-17T07:54:17.780Z,-20093.03
2023-01-17T07:55:20.302Z,-20094.88
2023-01-17T07:56:23.185Z,-20094.88
2023-01-17T07:57:25.783Z,-20093.41
2023-01-17T07:58:28.790Z,-20095.97
2023-01-17T07:59:33.868Z,-20094.88
2023-01-17T08:00:36.395Z,-20096.16
2023-01-17T08:01:38.992Z,-20095.59
2023-01-17T08:02:41.443Z,-20095.44
2023-01-17T08:03:44.195Z,-20096.16
2023-01-17T08:04:47.395Z,-20093.94
2023-01-17T08:05:55.684Z,-20098.19
2023-01-17T08:07:00.634Z,-20095.06
2023-01-17T08:08:03.160Z,-20097.63
2023-01-17T08:09:05.891Z,-20096.72
2023-01-17T08:10:13.243Z,-20099.31
2023-01-17T08:11:16.329Z,-20098.75
2023-01-17T08:12:18.995Z,-20100.03
2023-01-17T08:13:22.567Z,-20102.81
2023-01-17T08:14:25.354Z,-20104.28
2023-01-17T08:15:27.995Z,-20107.06
2023-01-17T08:16:30.909Z,-20107.78
2023-01-17T08:17:34.123Z,-20111.66
2023-01-17T08:18:36.640Z,-20112.59
2023-01-17T08:19:39.497Z,-20116.28
2023-01-17T08:20:46.495Z,-20120.88
2023-01-17T08:21:49.124Z,-20121.81
2023-01-17T08:22:57.880Z,-19807.06
2023-01-17T08:24:00.414Z,-18536.56
2023-01-17T08:25:02.920Z,-17268.50
2023-01-17T08:26:05.572Z,-16961.16
2023-01-17T08:27:09.163Z,-15373.13
2023-01-17T08:28:11.924Z,-14421.91
2023-01-17T08:29:15.285Z,-13150.94
2023-01-17T08:30:18.798Z,-12837.78
2023-01-17T08:31:21.483Z,-11570.59
2023-01-17T08:32:24.166Z,-9347.41
2023-01-17T08:33:26.685Z,-7121.56
2023-01-17T08:34:29.209Z,-2980.13
2023-01-17T08:35:31.851Z,1806.75
2023-01-17T08:36:34.368Z,4364.97
2023-01-17T08:37:38.089Z,10451.09
2023-01-17T08:38:40.610Z,19120.50
2023-01-17T08:39:43.145Z,26535.06
2023-01-17T08:40:45.776Z,39779.25
2023-01-17T08:41:48.293Z,58264.34
2023-01-17T08:42:55.258Z,63504.44
2023-01-17T08:43:58.383Z,70721.78
2023-01-17T08:45:00.775Z,87755.16
2023-01-17T08:46:03.332Z,124348.47
2023-01-17T08:47:06.431Z,146656.84
2023-01-17T08:48:08.946Z,146694.25
2023-01-17T08:49:12.355Z,146731.66
2023-01-17T08:50:15.212Z,146726.81
2023-01-17T08:51:18.189Z,146706.28
2023-01-17T08:52:20.709Z,146670.09
2023-01-17T08:53:23.477Z,146697.84
2023-01-17T08:54:26.200Z,146773.88
2023-01-17T08:55:28.999Z,146773.88
2023-01-17T08:56:31.759Z,146833.06
2023-01-17T08:57:34.601Z,146924.84
2023-01-17T08:58:37.406Z,146885.00
2023-01-17T08:59:40.043Z,146827.03
2023-01-17T09:00:42.731Z,146875.31
2023-01-17T09:01:46.235Z,146831.84
2023-01-17T09:02:52.177Z,146853.59
2023-01-17T09:03:54.995Z,146892.22
2023-01-17T09:04:57.823Z,146875.31
2023-01-17T09:06:04.655Z,146881.34
2023-01-17T09:07:07.655Z,146882.53
2023-01-17T09:08:10.780Z,146933.28
2023-01-17T09:09:14.017Z,146956.25
2023-01-17T09:10:17.261Z,146991.28
2023-01-17T09:11:20.383Z,146929.66
2023-01-17T09:12:23.880Z,146918.81
2023-01-17T09:13:26.997Z,146945.34
2023-01-17T09:14:30.112Z,146971.94
2023-01-17T09:15:33.482Z,147029.94
2023-01-17T09:16:36.650Z,147066.16
2023-01-17T09:17:39.847Z,147032.34
2023-01-17T09:18:43.074Z,147078.28
2023-01-17T09:19:48.986Z,147103.63
2023-01-17T09:20:55.562Z,147148.41
2023-01-17T09:21:58.810Z,147235.41
2023-01-17T09:23:05.432Z,147237.84
2023-01-17T09:24:08.762Z,147341.84
2023-01-17T09:25:11.890Z,147203.97
2023-01-17T09:26:28.234Z,147266.84
2023-01-17T09:27:31.330Z,147274.13
2023-01-17T09:28:41.410Z,147269.25
2023-01-17T09:29:44.655Z,147226.97
2023-01-17T09:30:48.312Z,147208.84
2023-01-17T09:31:51.614Z,147317.66
2023-01-17T09:32:55.698Z,147318.88
2023-01-17T09:33:59.658Z,147355.13
2023-01-17T09:35:03.857Z,147334.56
2023-01-17T09:36:07.583Z,147295.88
2023-01-17T09:37:11.065Z,147361.19
2023-01-17T09:38:14.669Z,147419.25
2023-01-17T09:39:18.028Z,147409.56
2023-01-17T09:40:24.993Z,147418.03
2023-01-17T09:41:55.260Z,147295.88
2023-01-17T09:43:04.357Z,147413.19
2023-01-17T09:44:24.648Z,147451.91
2023-01-17T09:45:31.611Z,147375.72
2023-01-17T09:46:40.129Z,147494.22
2023-01-17T09:47:45.520Z,147450.69
2023-01-17T09:49:02.687Z,147522.06
2023-01-17T09:50:17.216Z,147530.53
2023-01-17T09:51:24.648Z,147643.13
2023-01-17T09:52:32.087Z,147523.28
2023-01-17T09:53:39.343Z,147529.31
2023-01-17T09:54:43.853Z,147390.19
2023-01-17T09:56:05.226Z,147247.53
2023-01-17T09:57:24.943Z,147445.84
2023-01-17T09:58:48.584Z,147432.53
2023-01-17T10:00:06.120Z,147477.31
2023-01-17T10:01:18.036Z,147609.25
2023-01-17T10:02:46.914Z,147610.47
2023-01-17T10:04:12.550Z,147651.59
2023-01-17T10:05:31.157Z,147602.00
2023-01-17T10:06:42.595Z,147570.53
2023-01-17T10:08:09.956Z,147637.09
2023-01-17T10:09:24.684Z,147704.88
2023-01-17T10:11:06.712Z,147748.44
2023-01-17T10:12:30.929Z,147782.34
2023-01-17T10:14:29.043Z,147746.03
2023-01-17T10:15:31.554Z,147612.88
2023-01-17T10:16:43.358Z,147700.03
2023-01-17T10:18:07.653Z,147897.41
2023-01-17T10:19:33.131Z,147755.69
2023-01-17T10:21:07.344Z,147818.66
2023-01-17T10:22:15.849Z,147838.06
2023-01-17T10:23:33.361Z,147867.13
2023-01-17T10:25:05.163Z,147845.31
2023-01-17T10:26:18.729Z,147954.34
2023-01-17T10:27:30.124Z,148048.88
2023-01-17T10:28:47.171Z,148048.88
2023-01-17T10:29:51.296Z,147935.00
2023-01-17T10:31:13.035Z,147733.94
2023-01-17T10:32:16.206Z,147809.00
2023-01-17T10:33:20.648Z,147875.59
2023-01-17T10:34:29.778Z,147833.22
2023-01-17T10:35:37.090Z,147942.25
2023-01-17T10:36:45.391Z,147961.66
2023-01-17T10:37:49.213Z,148023.41
2023-01-17T10:39:02.181Z,148085.22
2023-01-17T10:40:16.824Z,147937.44
2023-01-17T10:41:27.737Z,147988.28
2023-01-17T10:42:37.464Z,148004.06
2023-01-17T10:43:57.375Z,147855.00
2023-01-17T10:45:12.983Z,147836.84
2023-01-17T10:46:20.575Z,147821.09
2023-01-17T10:47:24.870Z,147874.38
2023-01-17T10:48:40.265Z,147988.28
2023-01-17T10:49:49.230Z,148007.69
2023-01-17T10:51:33.274Z,148144.63
2023-01-17T10:52:47.311Z,148075.53
2023-01-17T10:53:55.590Z,148143.41
2023-01-17T10:55:33.403Z,148147.03
2023-01-17T10:56:39.764Z,148216.13
2023-01-17T10:57:48.284Z,148062.22
2023-01-17T10:59:11.569Z,147998.00
2023-01-17T11:00:40.245Z,147881.66
2023-01-17T11:01:43.437Z,147631.00
2023-01-17T11:02:50.669Z,147777.50
2023-01-17T11:03:55.419Z,147884.06
2023-01-17T11:05:03.664Z,148067.06
2023-01-17T11:06:22.131Z,148017.38
2023-01-17T11:07:27.538Z,147743.59
2023-01-17T11:08:53.464Z,147738.78
2023-01-17T11:09:58.506Z,147968.94
2023-01-17T11:11:04.616Z,148034.34
2023-01-17T11:12:21.081Z,147968.94
2023-01-17T11:13:37.290Z,147925.22
2023-01-17T11:14:40.384Z,147893.78
2023-01-17T11:15:49.039Z,147959.25
2023-01-17T11:17:07.151Z,147998.00
2023-01-17T11:18:17.470Z,147937.44
2023-01-17T11:19:31.752Z,147974.97
2023-01-17T11:20:37.515Z,147937.44
2023-01-17T11:21:50.598Z,148148.25
2023-01-17T11:23:17.483Z,148214.91
2023-01-17T11:24:44.845Z,148244.00
2023-01-17T11:25:54.082Z,148282.84
2023-01-17T11:26:58.403Z,148109.47
2023-01-17T11:28:05.126Z,148136.16
2023-01-17T11:29:27.210Z,148176.13
2023-01-17T11:30:30.456Z,148142.19
2023-01-17T11:31:33.575Z,148342.28
2023-01-17T11:32:36.815Z,148336.22
2023-01-17T11:33:46.080Z,148497.56
2023-01-17T11:35:14.024Z,148393.25
2023-01-17T11:36:17.856Z,148325.31
2023-01-17T11:37:21.342Z,148280.44
2023-01-17T11:38:25.904Z,148385.97
2023-01-17T11:39:29.284Z,148183.41
2023-01-17T11:40:38.993Z,148326.53
2023-01-17T11:41:42.470Z,148347.13
2023-01-17T11:42:45.708Z,148327.75
2023-01-17T11:43:59.752Z,148262.28
2023-01-17T11:45:28.675Z,148230.69
2023-01-17T11:46:32.659Z,148037.97
2023-01-17T11:47:35.642Z,148002.84
2023-01-17T11:48:39.362Z,148182.19
2023-01-17T11:49:45.146Z,148252.53
2023-01-17T11:50:58.107Z,148301.06
2023-01-17T11:52:04.088Z,148313.16
2023-01-17T11:53:26.893Z,148254.97
2023-01-17T11:54:39.678Z,148128.88
2023-01-17T11:56:05.062Z,147782.34
2023-01-17T11:57:20.533Z,147765.41
2023-01-17T11:58:24.373Z,147656.44
2023-01-17T11:59:42.622Z,147562.03
2023-01-17T12:00:49.327Z,147750.88
2023-01-17T12:02:02.826Z,147830.81
2023-01-17T12:03:17.587Z,147848.94
2023-01-17T12:04:25.031Z,147908.31
2023-01-17T12:05:40.706Z,148005.25
2023-01-17T12:07:03.553Z,147823.50
2023-01-17T12:08:11.589Z,147591.06
2023-01-17T12:09:24.434Z,147428.91
2023-01-17T12:10:46.282Z,147301.91
2023-01-17T12:12:45.436Z,147257.19
2023-01-17T12:14:03.555Z,146928.47
2023-01-17T12:15:27.318Z,146827.03
2023-01-17T12:16:32.867Z,146859.63
2023-01-17T12:17:47.447Z,146933.28
2023-01-17T12:19:04.045Z,147000.94
2023-01-17T12:20:21.947Z,146942.94
2023-01-17T12:21:43.162Z,146892.22
2023-01-17T12:23:21.082Z,146968.31
2023-01-17T12:24:26.242Z,146851.19
2023-01-17T12:25:37.281Z,146816.13
2023-01-17T12:26:50.134Z,146883.78
2023-01-17T12:28:27.329Z,146862.03
2023-01-17T12:29:44.488Z,146831.84
2023-01-17T12:31:15.423Z,146788.41
2023-01-17T12:32:30.237Z,146707.50
2023-01-17T12:33:50.989Z,146705.09
2023-01-17T12:35:03.696Z,146725.63
2023-01-17T12:36:22.169Z,146757.00
2023-01-17T12:37:34.658Z,146708.69
2023-01-17T12:38:39.579Z,146701.47
2023-01-17T12:39:52.654Z,146841.50
2023-01-17T12:41:06.005Z,147026.31
2023-01-17T12:42:21.333Z,147168.94
2023-01-17T12:43:37.356Z,147142.34
2023-01-17T12:45:05.978Z,147049.28
2023-01-17T12:46:21.132Z,147117.00
2023-01-17T12:47:23.858Z,147153.25
2023-01-17T12:48:32.278Z,147321.28
2023-01-17T12:49:49.667Z,147402.28
2023-01-17T12:51:04.187Z,147346.69
2023-01-17T12:52:29.026Z,147363.59
2023-01-17T12:54:05.505Z,147664.94
2023-01-17T12:55:17.750Z,147862.28
2023-01-17T12:56:33.719Z,148136.16
2023-01-17T12:57:44.272Z,148068.28
2023-01-17T12:58:53.033Z,148085.22
2023-01-17T13:00:07.084Z,148109.47
2023-01-17T13:01:23.837Z,147943.47